createdAt,value
2022-10-23T00:00:09.558Z,101356.13
2022-10-23T00:02:36.092Z,101354.28
2022-10-23T00:05:02.830Z,101356.00
2022-10-23T00:09:57.302Z,101361.72
2022-10-23T00:12:23.834Z,101364.44
2022-10-23T00:14:50.307Z,101369.91
2022-10-23T00:17:16.812Z,101370.06
2022-10-23T00:19:43.302Z,101375.34
2022-10-23T00:22:09.820Z,101375.34
2022-10-23T00:24:36.339Z,101377.06
2022-10-23T00:27:04.225Z,101378.75
2022-10-23T00:29:30.739Z,101380.47
2022-10-23T00:31:57.233Z,101379.63
2022-10-23T00:34:23.664Z,101380.28
2022-10-23T00:36:50.218Z,101383.00
2022-10-23T00:39:16.772Z,101379.28
2022-10-23T00:41:43.311Z,101376.25
2022-10-23T00:44:49.787Z,101386.13
2022-10-23T00:47:17.132Z,101383.25
2022-10-23T00:49:43.753Z,101376.78
2022-10-23T00:52:13.079Z,101382.03
2022-10-23T00:54:42.110Z,101387.50
2022-10-23T00:57:12.690Z,101379.19
2022-10-23T00:59:41.455Z,101384.63
2022-10-23T01:02:08.331Z,101386.34
2022-10-23T01:04:36.189Z,101385.47
2022-10-23T01:07:09.190Z,101381.75
2022-10-23T01:09:40.889Z,101384.63
2022-10-23T01:12:13.392Z,101382.75
2022-10-23T01:14:50.689Z,101381.03
2022-10-23T01:17:24.860Z,101385.63
2022-10-23T01:20:01.278Z,101383.09
2022-10-23T01:22:42.846Z,101381.38
2022-10-23T01:25:23.637Z,101377.94
2022-10-23T01:27:55.992Z,101389.88
2022-10-23T01:30:22.601Z,101392.75
2022-10-23T01:32:53.881Z,101400.19
2022-10-23T01:35:24.192Z,101395.09
2022-10-23T01:37:55.553Z,101399.81
2022-10-23T01:40:25.408Z,101394.56
2022-10-23T01:42:57.262Z,101401.16
2022-10-23T01:45:28.075Z,101396.06
2022-10-23T01:47:56.457Z,101403.53
2022-10-23T01:50:24.956Z,101385.84
2022-10-23T01:52:51.754Z,101397.00
2022-10-23T01:55:18.559Z,101394.78
2022-10-23T01:57:47.461Z,101394.25
2022-10-23T02:00:17.936Z,101398.16
2022-10-23T02:02:46.083Z,101400.31
2022-10-23T02:05:17.187Z,101393.31
2022-10-23T02:07:44.935Z,101390.94
2022-10-23T02:10:13.639Z,101387.69
2022-10-23T02:12:50.031Z,101386.97
2022-10-23T02:15:25.627Z,101387.97
2022-10-23T02:18:02.399Z,101389.16
2022-10-23T02:20:38.326Z,101384.88
2022-10-23T02:23:14.235Z,101384.19
2022-10-23T02:25:48.030Z,101379.09
2022-10-23T02:28:19.785Z,101384.81
2022-10-23T02:30:50.125Z,101378.69
2022-10-23T02:33:17.728Z,101378.00
2022-10-23T02:35:44.672Z,101372.72
2022-10-23T02:38:33.968Z,101368.44
2022-10-23T02:41:10.859Z,101373.19
2022-10-23T02:43:43.511Z,101370.63
2022-10-23T02:46:28.976Z,101379.25
2022-10-23T02:49:04.366Z,101374.13
2022-10-23T02:51:39.178Z,101374.44
2022-10-23T02:54:12.172Z,101379.31
2022-10-23T02:56:44.253Z,101383.38
2022-10-23T02:59:18.811Z,101386.56
2022-10-23T03:01:50.742Z,101388.84
2022-10-23T03:04:19.637Z,101370.28
2022-10-23T03:06:46.710Z,101380.63
2022-10-23T03:09:13.198Z,101383.66
2022-10-23T03:11:39.728Z,101378.53
2022-10-23T03:14:06.729Z,101376.97
2022-10-23T03:16:33.247Z,101387.28
2022-10-23T03:19:01.099Z,101384.88
2022-10-23T03:21:27.756Z,101375.47
2022-10-23T03:23:54.234Z,101381.22
2022-10-23T03:26:20.806Z,101380.66
2022-10-23T03:28:47.341Z,101385.41
2022-10-23T03:31:13.881Z,101378.56
2022-10-23T03:33:40.408Z,101378.88
2022-10-23T03:36:09.419Z,101380.16
2022-10-23T03:38:36.246Z,101381.47
2022-10-23T03:41:02.778Z,101379.06
2022-10-23T03:43:29.264Z,101380.38
2022-10-23T03:45:55.943Z,101392.41
2022-10-23T03:48:22.443Z,101391.84
2022-10-23T03:50:48.962Z,101399.44
2022-10-23T03:53:16.794Z,101387.16
2022-10-23T03:55:44.230Z,101387.63
2022-10-23T03:58:10.796Z,101393.34
2022-10-23T04:00:37.312Z,101397.38
2022-10-23T04:03:03.979Z,101385.09
2022-10-23T04:05:30.559Z,101386.41
2022-10-23T04:07:57.252Z,101386.00
2022-10-23T04:10:25.141Z,101393.41
2022-10-23T04:12:51.725Z,101388.28
2022-10-23T04:15:18.271Z,101383.19
2022-10-23T04:17:44.816Z,101382.75
2022-10-23T04:20:11.360Z,101386.91
2022-10-23T04:22:37.886Z,101392.78
2022-10-23T04:25:04.933Z,101377.09
2022-10-23T04:27:32.896Z,101374.66
2022-10-23T04:29:59.358Z,101370.41
2022-10-23T04:32:25.997Z,101372.38
2022-10-23T04:34:52.510Z,101378.94
2022-10-23T04:37:19.189Z,101381.97
2022-10-23T04:39:45.623Z,101383.25
2022-10-23T04:42:12.148Z,101386.22
2022-10-23T04:44:39.992Z,101385.66
2022-10-23T04:47:06.513Z,101382.41
2022-10-23T04:49:32.954Z,101384.56
2022-10-23T04:51:59.554Z,101385.84
2022-10-23T04:54:26.063Z,101385.25
2022-10-23T04:56:52.571Z,101385.56
2022-10-23T04:59:19.049Z,101394.84
2022-10-23T05:01:46.908Z,101387.84
2022-10-23T05:04:13.442Z,101389.00
2022-10-23T05:06:39.965Z,101376.72
2022-10-23T05:09:06.490Z,101379.75
2022-10-23T05:11:32.936Z,101379.13
2022-10-23T05:13:59.406Z,101376.72
2022-10-23T05:16:37.737Z,101378.88
2022-10-23T05:19:09.114Z,101379.00
2022-10-23T05:21:36.028Z,101381.00
2022-10-23T05:24:02.608Z,101375.72
2022-10-23T05:26:30.672Z,101370.44
2022-10-23T05:28:57.207Z,101373.31
2022-10-23T05:31:25.224Z,101384.28
2022-10-23T05:33:52.608Z,101389.00
2022-10-23T05:36:21.919Z,101390.97
2022-10-23T05:42:26.001Z,101384.13
2022-10-23T05:44:52.512Z,101392.56
2022-10-23T05:47:19.021Z,101398.94
2022-10-23T05:49:45.533Z,101392.81
2022-10-23T05:52:14.030Z,101392.09
2022-10-23T05:54:40.979Z,101390.69
2022-10-23T05:57:07.798Z,101388.97
2022-10-23T05:59:34.415Z,101388.25
2022-10-23T06:02:01.130Z,101385.53
2022-10-23T06:04:28.038Z,101391.22
2022-10-23T06:06:54.603Z,101384.97
2022-10-23T06:09:22.564Z,101385.94
2022-10-23T06:11:49.068Z,101385.25
2022-10-23T06:14:15.573Z,101382.66
2022-10-23T06:16:42.025Z,101382.66
2022-10-23T06:19:10.066Z,101383.66
2022-10-23T06:21:36.635Z,101380.13
2022-10-23T06:24:03.922Z,101374.72
2022-10-23T06:26:31.786Z,101377.41
2022-10-23T06:28:58.744Z,101370.97
2022-10-23T06:31:25.305Z,101368.16
2022-10-23T06:33:51.915Z,101372.41
2022-10-23T06:36:18.793Z,101375.97
2022-10-23T06:38:45.326Z,101376.72
2022-10-23T06:41:14.275Z,101387.25
2022-10-23T06:43:42.250Z,101394.09
2022-10-23T06:46:08.816Z,101385.53
2022-10-23T06:48:35.778Z,101383.41
2022-10-23T06:51:06.315Z,101386.97
2022-10-23T06:53:33.320Z,101380.44
2022-10-23T06:56:00.313Z,101387.28
2022-10-23T06:58:26.922Z,101402.25
2022-10-23T07:00:55.338Z,101398.13
2022-10-23T07:03:22.145Z,101392.25
2022-10-23T07:05:48.668Z,101391.69
2022-10-23T07:08:15.227Z,101394.69
2022-10-23T07:10:41.914Z,101402.25
2022-10-23T07:13:08.489Z,101409.81
2022-10-23T07:15:35.954Z,101407.34
2022-10-23T07:18:04.049Z,101396.66
2022-10-23T07:20:30.818Z,101399.66
2022-10-23T07:22:57.535Z,101404.34
2022-10-23T07:25:26.251Z,101395.50
2022-10-23T07:27:53.256Z,101392.06
2022-10-23T07:30:19.714Z,101397.44
2022-10-23T07:32:46.212Z,101394.03
2022-10-23T07:37:42.006Z,101397.09
2022-10-23T07:40:09.650Z,101387.50
2022-10-23T07:42:36.175Z,101393.22
2022-10-23T07:45:02.765Z,101389.03
2022-10-23T07:47:29.296Z,101389.28
2022-10-23T07:49:55.841Z,101394.94
2022-10-23T07:52:23.817Z,101386.09
2022-10-23T07:54:50.935Z,101386.31
2022-10-23T07:57:17.705Z,101396.41
2022-10-23T07:59:44.199Z,101398.53
2022-10-23T08:02:12.017Z,101388.47
2022-10-23T08:04:38.573Z,101381.25
2022-10-23T08:07:05.007Z,101382.34
2022-10-23T08:09:32.883Z,101386.84
2022-10-23T08:11:59.343Z,101385.22
2022-10-23T08:14:26.344Z,101384.44
2022-10-23T08:16:53.021Z,101383.50
2022-10-23T08:19:19.535Z,101382.03
2022-10-23T08:21:46.070Z,101387.53
2022-10-23T08:24:12.801Z,101380.47
2022-10-23T08:26:40.993Z,101384.09
2022-10-23T08:29:07.520Z,101380.59
2022-10-23T08:31:34.036Z,101377.06
2022-10-23T08:34:00.526Z,101376.44
2022-10-23T08:36:28.505Z,101373.91
2022-10-23T08:38:56.392Z,101373.28
2022-10-23T08:41:26.028Z,101375.34
2022-10-23T08:44:00.361Z,101378.44
2022-10-23T08:46:31.161Z,101376.94
2022-10-23T08:49:08.982Z,101379.19
2022-10-23T08:51:40.884Z,101373.25
2022-10-23T08:54:13.990Z,101371.03
2022-10-23T09:03:38.386Z,101370.31
2022-10-23T09:06:15.249Z,101369.13
2022-10-23T09:08:52.439Z,101365.91
2022-10-23T09:11:26.778Z,101359.97
2022-10-23T09:14:20.135Z,101363.72
2022-10-23T09:17:00.264Z,101352.19
2022-10-23T09:19:28.176Z,101348.47
2022-10-23T09:21:56.262Z,101346.75
2022-10-23T09:24:25.529Z,101353.94
2022-10-23T09:26:54.025Z,101358.72
2022-10-23T09:29:25.972Z,101359.59
2022-10-23T09:31:54.432Z,101359.75
2022-10-23T09:34:23.690Z,101361.81
2022-10-23T09:39:28.805Z,101346.81
2022-10-23T09:41:57.043Z,101351.59
2022-10-23T09:44:25.391Z,101354.31
2022-10-23T09:46:54.023Z,101343.75
2022-10-23T09:49:23.671Z,101342.06
2022-10-23T09:52:00.002Z,101343.06
2022-10-23T09:54:27.991Z,101343.25
2022-10-23T09:56:55.907Z,101339.78
2022-10-23T09:59:26.675Z,101338.09
2022-10-23T10:01:55.949Z,101340.09
2022-10-23T10:04:32.631Z,101335.84
2022-10-23T10:07:03.631Z,101340.63
2022-10-23T10:09:30.266Z,101345.19
2022-10-23T10:12:10.379Z,101334.22
2022-10-23T10:14:52.747Z,101325.16
2022-10-23T10:17:30.322Z,101324.09
2022-10-23T10:20:18.796Z,101333.09
2022-10-23T10:22:52.805Z,101325.69
2022-10-23T10:25:25.586Z,101325.69
2022-10-23T10:28:01.778Z,101323.97
2022-10-23T10:30:34.721Z,101321.16
2022-10-23T10:33:09.308Z,101325.72
2022-10-23T10:35:42.846Z,101313.88
2022-10-23T10:38:29.888Z,101311.13
2022-10-23T10:41:25.169Z,101302.47
2022-10-23T10:44:03.190Z,101298.81
2022-10-23T10:46:33.433Z,101299.59
2022-10-23T10:49:06.281Z,101308.41
2022-10-23T10:51:38.965Z,101300.50
2022-10-23T10:54:19.459Z,101300.09
2022-10-23T10:56:47.582Z,101285.03
2022-10-23T10:59:20.799Z,101282.56
2022-10-23T11:01:53.343Z,101267.97
2022-10-23T11:04:30.630Z,101272.53
2022-10-23T11:06:59.479Z,101268.66
2022-10-23T11:09:29.162Z,101262.91
2022-10-23T11:11:56.121Z,101258.16
2022-10-23T11:14:24.892Z,101253.44
2022-10-23T11:16:54.682Z,101254.19
2022-10-23T11:19:25.448Z,101247.78
2022-10-23T11:21:58.280Z,101249.16
2022-10-23T11:25:02.804Z,101246.28
2022-10-23T11:28:04.450Z,101242.66
2022-10-23T11:30:40.659Z,101236.06
2022-10-23T11:33:35.703Z,101225.13
2022-10-23T11:36:11.889Z,101220.59
2022-10-23T11:38:40.774Z,101217.25
2022-10-23T11:41:22.282Z,101209.28
2022-10-23T11:43:54.140Z,101209.53
2022-10-23T11:46:31.566Z,101214.22
2022-10-23T11:48:58.843Z,101197.38
2022-10-23T11:51:27.765Z,101196.78
2022-10-23T11:54:06.349Z,101185.44
2022-10-23T11:56:34.376Z,101192.22
2022-10-23T11:59:22.279Z,101195.22
2022-10-23T12:01:51.754Z,101195.25
2022-10-23T12:04:23.945Z,101190.63
2022-10-23T12:06:53.948Z,101186.06
2022-10-23T12:09:31.664Z,101189.53
2022-10-23T12:12:13.656Z,101180.28
2022-10-23T12:14:42.531Z,101166.78
2022-10-23T12:17:29.222Z,101174.41
2022-10-23T12:20:21.179Z,101163.03
2022-10-23T12:22:58.586Z,101155.22
2022-10-23T12:25:34.659Z,101156.72
2022-10-23T12:28:12.139Z,101156.06
2022-10-23T12:30:45.356Z,101161.78
2022-10-23T12:33:20.636Z,101151.84
2022-10-23T12:36:16.940Z,101157.09
2022-10-23T12:38:45.695Z,101154.09
2022-10-23T12:41:15.578Z,101153.47
2022-10-23T12:43:50.266Z,101152.63
2022-10-23T12:46:27.795Z,101139.94
2022-10-23T12:48:55.401Z,101137.19
2022-10-23T12:51:24.239Z,101125.38
2022-10-23T12:53:50.899Z,101124.50
2022-10-23T12:56:18.537Z,101115.25
2022-10-23T12:58:49.715Z,101110.19
2022-10-23T13:01:24.503Z,101100.47
2022-10-23T13:03:52.344Z,101101.34
2022-10-23T13:06:19.092Z,101099.25
2022-10-23T13:08:47.870Z,101092.91
2022-10-23T13:11:17.421Z,101090.53
2022-10-23T13:13:44.155Z,101089.06
2022-10-23T13:16:16.648Z,101085.47
2022-10-23T13:18:43.473Z,101081.03
2022-10-23T13:21:17.648Z,101084.63
2022-10-23T13:23:44.246Z,101074.50
2022-10-23T13:26:25.768Z,101067.94
2022-10-23T13:28:52.770Z,101074.72
2022-10-23T13:31:31.066Z,101067.09
2022-10-23T13:34:18.752Z,101068.81
2022-10-23T13:36:58.297Z,101068.81
2022-10-23T13:39:27.140Z,101070.94
2022-10-23T13:41:53.873Z,101059.28
2022-10-23T13:44:23.376Z,101066.69
2022-10-23T13:46:51.740Z,101063.50
2022-10-23T13:49:18.924Z,101057.59
2022-10-23T13:51:48.661Z,101059.47
2022-10-23T13:54:18.128Z,101043.44
2022-10-23T13:56:45.250Z,101051.00
2022-10-23T13:59:11.950Z,101047.41
2022-10-23T14:01:39.350Z,101042.16
2022-10-23T14:04:08.178Z,101041.31
2022-10-23T14:06:34.882Z,101042.72
2022-10-23T14:09:01.346Z,101037.84
2022-10-23T14:11:27.916Z,101042.69
2022-10-23T14:13:54.471Z,101039.69
2022-10-23T14:16:21.038Z,101039.28
2022-10-23T14:18:47.877Z,101035.91
2022-10-23T14:21:18.097Z,101035.44
2022-10-23T14:23:44.612Z,101026.59
2022-10-23T14:26:12.831Z,101024.88
2022-10-23T14:28:39.604Z,101020.84
2022-10-23T14:31:08.189Z,101022.13
2022-10-23T14:33:34.766Z,101027.81
2022-10-23T14:36:01.783Z,101014.50
2022-10-23T14:38:30.047Z,101022.06
2022-10-23T14:40:56.548Z,101015.28
2022-10-23T14:43:24.426Z,101019.31
2022-10-23T14:45:51.397Z,101014.00
2022-10-23T14:48:18.203Z,101015.28
2022-10-23T14:50:46.717Z,101007.44
2022-10-23T14:53:13.554Z,101015.22
2022-10-23T14:55:41.689Z,101016.88
2022-10-23T14:58:08.368Z,101012.22
2022-10-23T15:00:34.901Z,101006.28
2022-10-23T15:03:01.493Z,101004.16
2022-10-23T15:05:27.993Z,101003.69
2022-10-23T15:07:55.410Z,100989.75
2022-10-23T15:10:21.946Z,100984.00
2022-10-23T15:12:49.846Z,100983.75
2022-10-23T15:15:16.488Z,100973.56
2022-10-23T15:17:42.984Z,100975.25
2022-10-23T15:20:10.293Z,100974.13
2022-10-23T15:22:37.166Z,100975.13
2022-10-23T15:25:04.209Z,100971.28
2022-10-23T15:27:30.651Z,100970.00
2022-10-23T15:29:58.475Z,100972.47
2022-10-23T15:32:25.104Z,100964.84
2022-10-23T15:34:51.892Z,100965.84
2022-10-23T15:37:18.372Z,100952.94
2022-10-23T15:39:45.054Z,100952.88
2022-10-23T15:42:11.637Z,100947.34
2022-10-23T15:44:40.285Z,100944.75
2022-10-23T15:47:08.546Z,100940.25
2022-10-23T15:49:35.250Z,100943.72
2022-10-23T15:52:01.765Z,100947.44
2022-10-23T15:54:30.673Z,100943.81
2022-10-23T15:56:59.809Z,100936.34
2022-10-23T15:59:26.753Z,100937.13
2022-10-23T16:01:53.430Z,100937.91
2022-10-23T16:04:21.932Z,100934.91
2022-10-23T16:06:48.684Z,100937.38
2022-10-23T16:09:15.727Z,100931.63
2022-10-23T16:11:43.507Z,100926.72
2022-10-23T16:14:12.823Z,100928.38
2022-10-23T16:16:39.327Z,100928.72
2022-10-23T16:19:06.018Z,100934.59
2022-10-23T16:21:35.977Z,100930.38
2022-10-23T16:24:05.130Z,100929.88
2022-10-23T16:26:32.190Z,100921.22
2022-10-23T16:29:00.244Z,100902.47
2022-10-23T16:31:27.166Z,100900.13
2022-10-23T16:36:28.858Z,100904.66
2022-10-23T16:38:56.823Z,100909.66
2022-10-23T16:41:23.305Z,100916.34
2022-10-23T16:43:49.953Z,100912.94
2022-10-23T16:46:18.325Z,100905.97
2022-10-23T16:48:45.780Z,100898.97
2022-10-23T16:51:21.724Z,100893.06
2022-10-23T16:53:48.790Z,100883.16
2022-10-23T16:56:17.068Z,100882.50
2022-10-23T16:58:44.363Z,100889.19
2022-10-23T17:01:13.101Z,100882.88
2022-10-23T17:03:41.705Z,100876.75
2022-10-23T17:06:11.162Z,100880.53
2022-10-23T17:08:39.511Z,100872.53
2022-10-23T17:11:08.187Z,100864.53
2022-10-23T17:13:35.911Z,100857.19
2022-10-23T17:16:04.511Z,100837.41
2022-10-23T17:18:31.136Z,100838.41
2022-10-23T17:20:58.027Z,100844.72
2022-10-23T17:23:24.696Z,100852.06
2022-10-23T17:25:52.633Z,100844.72
2022-10-23T17:28:19.174Z,100848.53
2022-10-23T17:30:45.688Z,100846.81
2022-10-23T17:33:12.383Z,100849.56
2022-10-23T17:35:39.485Z,100828.06
2022-10-23T17:38:06.261Z,100823.66
2022-10-23T17:40:33.024Z,100831.84
2022-10-23T17:43:01.216Z,100832.88
2022-10-23T17:45:27.910Z,100835.78
2022-10-23T17:47:54.370Z,100832.44
2022-10-23T17:50:20.861Z,100840.78
2022-10-23T17:52:47.426Z,100829.88
2022-10-23T17:55:13.950Z,100829.88
2022-10-23T17:57:40.792Z,100827.16
2022-10-23T18:00:09.989Z,100815.38
2022-10-23T18:02:36.578Z,100819.97
2022-10-23T18:05:03.396Z,100811.16
2022-10-23T18:07:29.904Z,100815.75
2022-10-23T18:09:56.489Z,100814.28
2022-10-23T18:12:23.138Z,100806.09
2022-10-23T18:14:49.703Z,100799.94
2022-10-23T18:17:17.564Z,100795.50
2022-10-23T18:19:44.091Z,100794.88
2022-10-23T18:22:10.631Z,100810.75
2022-10-23T18:24:37.215Z,100791.88
2022-10-23T18:27:03.841Z,100777.53
2022-10-23T18:29:30.523Z,100784.25
2022-10-23T18:31:56.984Z,100788.16
2022-10-23T18:34:25.459Z,100778.31
2022-10-23T18:36:53.706Z,100787.72
2022-10-23T18:39:22.816Z,100787.91
2022-10-23T18:41:51.380Z,100771.91
2022-10-23T18:44:19.843Z,100771.25
2022-10-23T18:46:47.715Z,100775.19
2022-10-23T18:49:16.254Z,100778.97
2022-10-23T18:51:44.438Z,100781.22
2022-10-23T18:54:13.577Z,100779.72
2022-10-23T18:56:40.617Z,100770.88
2022-10-23T18:59:11.253Z,100763.53
2022-10-23T19:01:37.848Z,100765.63
2022-10-23T19:04:05.329Z,100766.63
2022-10-23T19:06:32.640Z,100772.09
2022-10-23T19:09:00.474Z,100772.09
2022-10-23T19:11:28.330Z,100765.78
2022-10-23T19:13:55.179Z,100763.28
2022-10-23T19:16:25.370Z,100757.16
2022-10-23T19:18:55.635Z,100758.16
2022-10-23T19:21:24.379Z,100752.06
2022-10-23T19:23:51.968Z,100747.66
2022-10-23T19:26:19.868Z,100745.94
2022-10-23T19:28:48.195Z,100745.09
2022-10-23T19:31:14.865Z,100740.66
2022-10-23T19:33:41.524Z,100730.81
2022-10-23T19:36:12.675Z,100735.41
2022-10-23T19:38:40.824Z,100742.75
2022-10-23T19:41:07.774Z,100729.28
2022-10-23T19:43:36.139Z,100740.19
2022-10-23T19:46:06.335Z,100745.00
2022-10-23T19:48:35.964Z,100744.34
2022-10-23T19:51:02.537Z,100750.00
2022-10-23T19:53:29.279Z,100751.03
2022-10-23T19:56:01.798Z,100747.63
2022-10-23T19:58:28.286Z,100744.03
2022-10-23T20:00:56.226Z,100747.84
2022-10-23T20:03:22.762Z,100739.81
2022-10-23T20:05:49.752Z,100742.69
2022-10-23T20:08:16.244Z,100735.56
2022-10-23T20:10:44.250Z,100744.97
2022-10-23T20:13:26.468Z,100744.09
2022-10-23T20:15:53.121Z,100748.91
2022-10-23T20:18:21.183Z,100753.69
2022-10-23T20:20:47.698Z,100746.53
2022-10-23T20:23:14.195Z,100747.59
2022-10-23T20:25:40.761Z,100755.28
2022-10-23T20:28:09.121Z,100741.16
2022-10-23T20:30:40.167Z,100739.47
2022-10-23T20:33:06.997Z,100737.13
2022-10-23T20:35:38.950Z,100727.44
2022-10-23T20:38:05.509Z,100734.09
2022-10-23T20:40:32.324Z,100735.50
2022-10-23T20:42:58.852Z,100726.84
2022-10-23T20:45:25.338Z,100731.84
2022-10-23T20:47:51.860Z,100726.75
2022-10-23T20:50:18.485Z,100718.09
2022-10-23T20:52:46.398Z,100706.72
2022-10-23T20:55:12.886Z,100710.84
2022-10-23T20:57:39.378Z,100708.50
2022-10-23T21:00:07.277Z,100711.59
2022-10-23T21:02:33.856Z,100710.22
2022-10-23T21:05:00.433Z,100709.59
2022-10-23T21:07:26.915Z,100710.13
2022-10-23T21:09:54.742Z,100714.09
2022-10-23T21:12:21.229Z,100709.00
2022-10-23T21:14:47.754Z,100715.81
2022-10-23T21:17:14.258Z,100734.41
2022-10-23T21:19:40.738Z,100727.63
2022-10-23T21:22:07.204Z,100715.41
2022-10-23T21:24:33.841Z,100726.69
2022-10-23T21:27:01.657Z,100742.50
2022-10-23T21:29:28.141Z,100735.72
2022-10-23T21:31:57.131Z,100736.09
2022-10-23T21:34:24.538Z,100740.03
2022-10-23T21:37:11.922Z,100743.97
2022-10-23T21:39:37.817Z,100755.22
2022-10-23T21:42:05.770Z,100751.81
2022-10-23T21:44:32.644Z,100763.75
2022-10-23T21:46:59.130Z,100765.75
2022-10-23T21:49:25.689Z,100760.31
2022-10-23T21:51:52.323Z,100752.31
2022-10-23T21:54:18.843Z,100747.91
2022-10-23T21:56:46.809Z,100748.09
2022-10-23T21:59:17.812Z,100738.22
2022-10-23T22:01:46.054Z,100743.66
2022-10-23T22:04:14.388Z,100746.38
2022-10-23T22:06:41.863Z,100751.81
2022-10-23T22:09:08.682Z,100759.81
2022-10-23T22:11:35.238Z,100754.38
2022-10-23T22:14:01.762Z,100759.66
2022-10-23T22:16:29.666Z,100764.06
2022-10-23T22:18:56.510Z,100761.16
2022-10-23T22:21:25.283Z,100770.19
2022-10-23T22:23:54.723Z,100774.63
2022-10-23T22:26:23.888Z,100780.06
2022-10-23T22:28:51.868Z,100786.19
2022-10-23T22:31:20.688Z,100782.25
2022-10-23T22:33:48.882Z,100786.50
2022-10-23T22:36:15.692Z,100795.31
2022-10-23T22:38:42.805Z,100784.25
2022-10-23T22:41:09.648Z,100787.84
2022-10-23T22:43:36.369Z,100791.25
2022-10-23T22:46:04.368Z,100787.47
2022-10-23T22:48:30.894Z,100790.19
2022-10-23T22:50:58.878Z,100788.16
2022-10-23T22:53:25.469Z,100789.34
2022-10-23T22:55:52.374Z,100782.00
2022-10-23T22:58:18.923Z,100778.28
2022-10-23T23:00:45.680Z,100772.81
2022-10-23T23:03:12.256Z,100775.38
2022-10-23T23:08:15.288Z,100753.22
2022-10-23T23:10:41.940Z,100755.59
2022-10-23T23:13:08.649Z,100748.09
2022-10-23T23:15:39.078Z,100738.69
2022-10-23T23:18:05.725Z,100741.44
2022-10-23T23:20:32.267Z,100737.69
2022-10-23T23:22:58.741Z,100740.22
2022-10-23T23:25:26.665Z,100731.88
2022-10-23T23:27:53.189Z,100728.97
2022-10-23T23:30:19.714Z,100726.06
2022-10-23T23:32:47.649Z,100742.22
2022-10-23T23:35:14.341Z,100742.22
2022-10-23T23:37:40.837Z,100730.97
2022-10-23T23:40:08.530Z,100716.31
2022-10-23T23:42:36.383Z,100695.56
2022-10-23T23:45:14.179Z,100692.00
2022-10-23T23:47:42.003Z,100728.44
2022-10-23T23:50:10.973Z,100705.97
2022-10-23T23:52:37.538Z,100735.28
2022-10-23T23:55:05.137Z,100717.22
2022-10-23T23:57:31.673Z,100705.69
2022-10-23T23:59:59.706Z,100687.66
